Terminal Aerodrome Forecast
Issued by NWS Wakefield, VA

Home | Current Version | Previous Version | Text Only | Print | Product List | Glossary On
Versions: 1 2 3 4 5 6 7 8 9 10 11 12 13 14 15
550
FTUS41 KAKQ 212336
TAFORF
TAF
KORF 212336Z 2200/2224 19006KT P6SM FEW250
     FM220900 20004KT P6SM SCT004 SCT020
     FM221200 21006KT 4SM BR SCT004 BKN030
     FM221400 21006KT P6SM SCT035
     FM221600 21007KT P6SM SCT200=

USA.gov is the U.S. government's official web portal to all federal, state and local government web resources and services.